Chimbaj, Uzbekistan
Current Conditions -  °F | °C
As of 8:00 PM on Saturday 20 Dec 2014 (Local Time) from UTNN Reporting Station
Clear Clear  
Wind Chill: 26°   Ceiling: Unl
Heat Index: 32°   Visibility: 5mi
Dew Point: 27°   Wind: 6mph
Humidity: 80%   Direction: 10°N
Pressure: 30.15"   Gusts: NA
Location:  42.95°N, 59.82°E
Report Text: UTNN 201500Z 01005KT 8000 NSC M00/M03 Q1021 R33/CLRD60 NOSIG
Loading
Personal Weather Stations






























Interactive Weather Map New forecast layout! Learn more

10-Day Weather Forecast

Advertisements
Track Severe Weather on mobile